createdAt,value
2018-06-10T00:02:29.809Z,30.13
2018-06-10T00:05:02.482Z,30.63
2018-06-10T00:07:35.218Z,27.33
2018-06-10T00:10:07.636Z,27.03
2018-06-10T00:12:40.038Z,29.87
2018-06-10T00:15:12.448Z,38.13
2018-06-10T00:17:44.861Z,34.27
2018-06-10T00:20:17.269Z,35.87
2018-06-10T00:22:49.664Z,38.97
2018-06-10T00:25:22.350Z,37.13
2018-06-10T00:27:55.021Z,39.00
2018-06-10T00:30:27.710Z,40.10
2018-06-10T00:33:00.365Z,46.30
2018-06-10T00:35:32.884Z,46.07
2018-06-10T00:38:05.277Z,46.97
2018-06-10T00:40:37.681Z,47.80
2018-06-10T00:43:10.081Z,41.47
2018-06-10T00:45:42.741Z,39.90
2018-06-10T00:48:15.138Z,38.87
2018-06-10T00:50:47.545Z,41.57
2018-06-10T00:53:19.924Z,45.00
2018-06-10T00:55:52.350Z,40.40
2018-06-10T00:58:25.253Z,41.53
2018-06-10T01:00:57.658Z,42.30
2018-06-10T01:03:30.306Z,41.43
2018-06-10T01:06:02.717Z,49.17
2018-06-10T01:08:35.109Z,49.37
2018-06-10T01:11:07.511Z,45.03
2018-06-10T01:13:39.735Z,45.77
2018-06-10T01:16:12.469Z,49.10
2018-06-10T01:18:44.865Z,52.43
2018-06-10T01:21:17.597Z,52.17
2018-06-10T01:23:50.249Z,51.43
2018-06-10T01:26:22.653Z,48.30
2018-06-10T01:28:55.048Z,48.70
2018-06-10T01:31:27.686Z,51.50
2018-06-10T01:34:00.404Z,43.13
2018-06-10T01:36:32.801Z,43.80
2018-06-10T01:39:06.013Z,45.47
2018-06-10T01:41:38.705Z,40.43
2018-06-10T01:44:11.106Z,39.53
2018-06-10T01:46:43.536Z,34.80
2018-06-10T01:49:16.168Z,33.47
2018-06-10T01:51:48.581Z,32.63
2018-06-10T01:54:20.977Z,33.90
2018-06-10T01:56:53.896Z,35.57
2018-06-10T01:59:26.310Z,33.93
2018-06-10T02:01:58.728Z,35.37
2018-06-10T02:04:30.961Z,36.40
2018-06-10T02:07:03.401Z,39.47
2018-06-10T02:09:36.029Z,37.70
2018-06-10T02:12:08.720Z,36.23
2018-06-10T02:14:41.122Z,34.53
2018-06-10T02:17:13.526Z,37.10
2018-06-10T02:19:46.530Z,36.40
2018-06-10T02:22:19.225Z,38.93
2018-06-10T02:24:51.621Z,40.57
2018-06-10T02:27:24.029Z,41.67
2018-06-10T02:29:56.425Z,41.40
2018-06-10T02:32:29.068Z,46.17
2018-06-10T02:35:02.033Z,45.83
2018-06-10T02:37:34.793Z,45.40
2018-06-10T02:40:07.193Z,48.40
2018-06-10T02:42:39.648Z,51.43
2018-06-10T02:45:12.039Z,55.90
2018-06-10T02:47:44.466Z,55.17
2018-06-10T02:50:16.978Z,53.97
2018-06-10T02:52:49.945Z,49.50
2018-06-10T02:55:22.585Z,53.70
2018-06-10T02:57:55.225Z,59.53
2018-06-10T03:00:27.958Z,60.97
2018-06-10T03:03:00.366Z,55.57
2018-06-10T03:05:32.753Z,59.00
2018-06-10T03:08:05.157Z,55.37
2018-06-10T03:10:37.558Z,62.97
2018-06-10T03:13:09.963Z,58.63
2018-06-10T03:15:42.349Z,62.07
2018-06-10T03:18:15.015Z,64.07
2018-06-10T03:20:47.690Z,63.43
2018-06-10T03:23:20.095Z,66.47
2018-06-10T03:25:52.782Z,59.63
2018-06-10T03:28:25.486Z,61.67
2018-06-10T03:30:58.152Z,62.27
2018-06-10T03:33:30.877Z,66.50
2018-06-10T03:36:03.269Z,60.63
2018-06-10T03:38:35.677Z,61.97
2018-06-10T03:41:08.068Z,58.73
2018-06-10T03:43:40.977Z,60.67
2018-06-10T03:46:13.377Z,56.50
2018-06-10T03:48:45.764Z,58.50
2018-06-10T03:51:18.467Z,50.03
2018-06-10T03:53:51.141Z,56.17
2018-06-10T03:56:23.541Z,56.07
2018-06-10T03:58:56.199Z,51.83
2018-06-10T04:01:28.853Z,55.87
2018-06-10T04:04:01.258Z,51.37
2018-06-10T04:06:33.650Z,47.33
2018-06-10T04:09:06.597Z,48.93
2018-06-10T04:11:39.276Z,50.83
2018-06-10T04:14:11.909Z,48.83
2018-06-10T04:16:44.297Z,49.77
2018-06-10T04:19:17.013Z,51.07
2018-06-10T04:21:49.402Z,44.33
2018-06-10T04:24:21.809Z,49.43
2018-06-10T04:26:54.201Z,48.43
2018-06-10T04:29:26.603Z,44.00
2018-06-10T04:31:59.278Z,41.13
2018-06-10T04:34:31.977Z,38.27
2018-06-10T04:37:04.373Z,36.83
2018-06-10T04:39:36.768Z,39.27
2018-06-10T04:42:09.157Z,40.93
2018-06-10T04:44:41.865Z,37.67
2018-06-10T04:47:14.547Z,42.13
2018-06-10T04:49:47.453Z,36.37
2018-06-10T04:52:19.858Z,38.80
2018-06-10T04:54:52.265Z,39.13
2018-06-10T04:57:24.946Z,34.40
2018-06-10T04:59:57.353Z,34.40
2018-06-10T05:02:29.749Z,31.43
2018-06-10T05:05:02.165Z,30.83
2018-06-10T05:07:34.830Z,30.10
2018-06-10T05:10:07.514Z,27.87
2018-06-10T05:12:39.909Z,27.60
2018-06-10T05:15:12.308Z,21.80
2018-06-10T05:17:44.688Z,25.10
2018-06-10T05:20:17.426Z,24.17
2018-06-10T05:22:49.811Z,23.73
2018-06-10T05:25:22.701Z,21.63
2018-06-10T05:27:55.349Z,24.30
2018-06-10T05:30:27.728Z,22.17
2018-06-10T05:33:00.141Z,23.60
2018-06-10T05:35:32.620Z,23.63
2018-06-10T05:38:05.585Z,27.23
2018-06-10T05:40:38.206Z,22.97
2018-06-10T05:43:10.610Z,21.43
2018-06-10T05:45:43.013Z,20.00
2018-06-10T05:48:15.508Z,21.30
2018-06-10T05:50:47.897Z,18.50
2018-06-10T05:53:20.314Z,20.77
2018-06-10T05:55:52.702Z,20.07
2018-06-10T05:58:25.358Z,18.00
2018-06-10T06:00:58.025Z,18.10
2018-06-10T06:03:30.985Z,20.52
2018-06-10T06:06:03.450Z,18.67
2018-06-10T06:08:36.161Z,20.30
2018-06-10T06:11:08.598Z,19.10
2018-06-10T06:13:41.235Z,22.20
2018-06-10T06:16:13.452Z,23.53
2018-06-10T06:18:46.166Z,25.48
2018-06-10T06:21:18.570Z,25.77
2018-06-10T06:23:51.218Z,24.53
2018-06-10T06:26:23.715Z,25.57
2018-06-10T06:28:56.373Z,28.13
2018-06-10T06:31:29.030Z,31.80
2018-06-10T06:34:01.751Z,30.40
2018-06-10T06:36:34.485Z,27.47
2018-06-10T06:39:08.117Z,31.43
2018-06-10T06:41:40.517Z,27.37
2018-06-10T06:44:12.921Z,28.03
2018-06-10T06:46:45.356Z,30.70
2018-06-10T06:49:17.764Z,27.90
2018-06-10T06:51:50.523Z,28.75
2018-06-10T06:54:22.976Z,29.18
2018-06-10T06:56:55.758Z,31.65
2018-06-10T06:59:28.182Z,24.23
2018-06-10T07:02:00.585Z,30.20
2018-06-10T07:04:33.004Z,30.60
2018-06-10T07:07:05.562Z,27.70
2018-06-10T07:09:37.982Z,27.67
2018-06-10T07:12:10.714Z,28.57
2018-06-10T07:14:43.457Z,31.40
2018-06-10T07:17:16.133Z,28.27
2018-06-10T07:19:48.545Z,31.13
2018-06-10T07:22:20.962Z,29.10
2018-06-10T07:24:53.380Z,32.20
2018-06-10T07:27:26.014Z,27.27
2018-06-10T07:29:58.441Z,28.67
2018-06-10T07:32:31.173Z,30.97
2018-06-10T07:35:04.065Z,33.23
2018-06-10T07:37:36.457Z,32.07
2018-06-10T07:40:08.870Z,34.33
2018-06-10T07:42:41.521Z,32.83
2018-06-10T07:45:13.941Z,39.17
2018-06-10T07:47:46.377Z,39.77
2018-06-10T07:50:19.353Z,44.70
2018-06-10T07:52:51.753Z,42.00
2018-06-10T07:55:24.166Z,38.70
2018-06-10T07:57:56.842Z,46.87
2018-06-10T08:00:29.266Z,50.30
2018-06-10T08:03:01.969Z,52.13
2018-06-10T08:05:34.366Z,43.50
2018-06-10T08:08:06.977Z,50.53
2018-06-10T08:10:39.383Z,49.63
2018-06-10T08:13:12.086Z,47.10
2018-06-10T08:15:44.506Z,55.40
2018-06-10T08:18:17.149Z,53.87
2018-06-10T08:20:49.841Z,53.13
2018-06-10T08:23:22.227Z,46.93
2018-06-10T08:25:54.629Z,47.83
2018-06-10T08:28:27.012Z,43.23
2018-06-10T08:30:59.416Z,46.03
2018-06-10T08:33:31.801Z,46.50
2018-06-10T08:36:04.486Z,46.97
2018-06-10T08:38:36.873Z,50.43
2018-06-10T08:41:09.273Z,54.73
2018-06-10T08:43:42.086Z,53.33
2018-06-10T08:46:14.531Z,49.83
2018-06-10T08:48:46.934Z,48.47
2018-06-10T08:51:19.621Z,56.53
2018-06-10T08:53:52.022Z,52.40
2018-06-10T08:56:24.442Z,53.48
2018-06-10T08:58:56.841Z,49.17
2018-06-10T09:01:29.546Z,46.53
2018-06-10T09:04:02.297Z,41.83
2018-06-10T09:06:34.713Z,50.07
2018-06-10T09:09:08.815Z,41.13
2018-06-10T09:11:41.489Z,40.33
2018-06-10T09:14:13.898Z,39.15
2018-06-10T09:16:46.320Z,46.95
2018-06-10T09:19:18.733Z,46.08
2018-06-10T09:21:51.137Z,52.20
2018-06-10T09:24:23.539Z,51.95
2018-06-10T09:26:56.193Z,54.05
2018-06-10T09:29:28.597Z,60.25
2018-06-10T09:32:00.824Z,56.05
2018-06-10T09:34:33.448Z,63.25
2018-06-10T09:37:05.865Z,71.17
2018-06-10T09:39:38.320Z,63.93
2018-06-10T09:42:10.742Z,60.55
2018-06-10T09:44:43.401Z,65.50
2018-06-10T09:47:15.823Z,63.87
2018-06-10T09:49:48.227Z,63.63
2018-06-10T09:52:20.638Z,71.90
2018-06-10T09:54:53.617Z,73.37
2018-06-10T09:57:26.331Z,62.03
2018-06-10T09:59:59.011Z,69.93
2018-06-10T10:02:31.689Z,62.40
2018-06-10T10:05:04.538Z,74.17
2018-06-10T10:07:36.947Z,53.10
2018-06-10T10:10:09.686Z,66.25
2018-06-10T10:12:42.107Z,52.55
2018-06-10T10:15:14.513Z,61.70
2018-06-10T10:17:46.948Z,73.67
2018-06-10T10:20:19.381Z,62.95
2018-06-10T10:22:51.806Z,61.08
2018-06-10T10:25:24.193Z,55.70
2018-06-10T10:27:57.144Z,58.17
2018-06-10T10:30:29.877Z,58.48
2018-06-10T10:33:02.566Z,48.10
2018-06-10T10:35:35.225Z,52.60
2018-06-10T10:38:07.654Z,52.13
2018-06-10T10:40:40.313Z,55.67
2018-06-10T10:43:12.736Z,50.30
2018-06-10T10:45:45.162Z,54.18
2018-06-10T10:48:17.576Z,57.33
2018-06-10T10:50:49.984Z,57.13
2018-06-10T10:53:22.401Z,56.45
2018-06-10T10:55:54.796Z,57.85
2018-06-10T10:58:27.217Z,59.35
2018-06-10T11:00:59.633Z,54.77
2018-06-10T11:03:32.057Z,45.58
2018-06-10T11:06:04.766Z,60.75
2018-06-10T11:08:37.181Z,57.20
2018-06-10T11:11:09.600Z,62.62
2018-06-10T11:13:42.257Z,56.10
2018-06-10T11:16:14.674Z,60.85
2018-06-10T11:18:47.085Z,63.98
2018-06-10T11:21:19.509Z,51.00
2018-06-10T11:23:52.558Z,63.98
2018-06-10T11:26:25.250Z,63.20
2018-06-10T11:28:57.909Z,57.60
2018-06-10T11:31:30.613Z,64.05
2018-06-10T11:34:03.005Z,59.90
2018-06-10T11:36:35.664Z,64.85
2018-06-10T11:39:08.411Z,46.05
2018-06-10T11:41:40.825Z,54.05
2018-06-10T11:44:13.230Z,39.85
2018-06-10T11:46:45.658Z,58.38
2018-06-10T11:49:18.361Z,67.45
2018-06-10T11:51:50.774Z,55.90
2018-06-10T11:54:23.513Z,64.00
2018-06-10T11:56:55.917Z,56.02
2018-06-10T11:59:28.346Z,58.05
2018-06-10T12:02:00.670Z,72.35
2018-06-10T12:04:32.838Z,54.00
2018-06-10T12:07:05.254Z,73.22
2018-06-10T12:09:37.653Z,72.53
2018-06-10T12:12:10.090Z,76.82
2018-06-10T12:14:42.793Z,77.65
2018-06-10T12:17:15.474Z,85.17
2018-06-10T12:19:48.457Z,79.75
2018-06-10T12:22:21.137Z,89.45
2018-06-10T12:24:53.698Z,81.70
2018-06-10T12:27:26.388Z,84.87
2018-06-10T12:29:58.789Z,78.50
2018-06-10T12:32:31.197Z,76.67
2018-06-10T12:35:03.614Z,75.35
2018-06-10T12:37:36.025Z,83.55
2018-06-10T12:40:08.461Z,87.40
2018-06-10T12:42:41.132Z,71.25
2018-06-10T12:45:13.773Z,81.20
2018-06-10T12:47:46.228Z,73.70
2018-06-10T12:50:18.968Z,86.22
2018-06-10T12:52:51.386Z,84.92
2018-06-10T12:55:23.785Z,69.60
2018-06-10T12:57:56.463Z,71.05
2018-06-10T13:00:29.169Z,61.98
2018-06-10T13:03:01.581Z,65.72
2018-06-10T13:05:33.989Z,51.83
2018-06-10T13:08:06.695Z,67.10
2018-06-10T13:10:39.337Z,57.93
2018-06-10T13:13:11.765Z,62.75
2018-06-10T13:15:44.166Z,66.37
2018-06-10T13:18:16.853Z,61.73
2018-06-10T13:20:49.253Z,62.60
2018-06-10T13:23:21.661Z,65.03
2018-06-10T13:25:54.061Z,65.12
2018-06-10T13:28:26.469Z,57.43
2018-06-10T13:30:58.886Z,53.65
2018-06-10T13:33:31.305Z,55.67
2018-06-10T13:36:03.710Z,50.45
2018-06-10T13:38:36.382Z,54.25
2018-06-10T13:41:09.016Z,43.42
2018-06-10T13:43:41.442Z,36.28
2018-06-10T13:46:13.893Z,37.30
2018-06-10T13:48:46.278Z,30.85
2018-06-10T13:51:18.925Z,25.62
2018-06-10T13:53:51.604Z,27.70
2018-06-10T13:56:24.108Z,30.77
2018-06-10T13:58:56.518Z,28.57
2018-06-10T14:01:29.142Z,24.20
2018-06-10T14:04:01.541Z,24.23
2018-06-10T14:06:33.957Z,22.70
2018-06-10T14:09:06.472Z,20.88
2018-06-10T14:11:38.856Z,21.02
2018-06-10T14:14:11.258Z,24.85
2018-06-10T14:16:43.645Z,20.12
2018-06-10T14:19:16.580Z,17.73
2018-06-10T14:21:48.966Z,19.15
2018-06-10T14:24:21.937Z,24.40
2018-06-10T14:26:54.573Z,17.85
2018-06-10T14:29:26.993Z,19.17
2018-06-10T14:31:59.676Z,20.32
2018-06-10T14:34:32.358Z,20.40
2018-06-10T14:37:04.747Z,20.08
2018-06-10T14:39:37.157Z,20.43
2018-06-10T14:42:09.562Z,23.32
2018-06-10T14:44:41.969Z,18.23
2018-06-10T14:47:14.375Z,20.57
2018-06-10T14:49:47.061Z,25.12
2018-06-10T14:52:19.721Z,21.17
2018-06-10T14:54:52.455Z,19.87
2018-06-10T14:57:24.813Z,22.00
2018-06-10T14:59:57.215Z,22.73
2018-06-10T15:02:29.605Z,21.55
2018-06-10T15:05:02.240Z,20.32
2018-06-10T15:07:34.695Z,16.95
2018-06-10T15:10:07.105Z,18.20
2018-06-10T15:12:39.589Z,16.35
2018-06-10T15:15:12.297Z,17.10
2018-06-10T15:17:44.697Z,21.65
2018-06-10T15:20:17.390Z,19.73
2018-06-10T15:22:49.845Z,24.40
2018-06-10T15:25:22.285Z,19.82
2018-06-10T15:27:54.668Z,17.12
2018-06-10T15:30:27.073Z,19.07
2018-06-10T15:32:59.466Z,23.12
2018-06-10T15:35:32.618Z,18.90
2018-06-10T15:38:05.038Z,19.90
2018-06-10T15:40:37.811Z,22.07
2018-06-10T15:43:10.177Z,19.85
2018-06-10T15:45:43.872Z,17.52
2018-06-10T15:48:16.282Z,19.37
2018-06-10T15:50:49.230Z,19.35
2018-06-10T15:53:21.905Z,19.15
2018-06-10T15:55:54.565Z,18.00
2018-06-10T15:58:27.324Z,16.87
2018-06-10T16:00:59.818Z,17.32
2018-06-10T16:03:32.473Z,19.00
2018-06-10T16:06:04.903Z,19.37
2018-06-10T16:08:37.306Z,17.00
2018-06-10T16:11:09.717Z,17.52
2018-06-10T16:13:42.393Z,22.50
2018-06-10T16:16:14.852Z,22.20
2018-06-10T16:18:47.249Z,23.47
2018-06-10T16:21:20.042Z,24.70
2018-06-10T16:23:52.437Z,22.02
2018-06-10T16:26:25.094Z,19.75
2018-06-10T16:28:57.536Z,25.15
2018-06-10T16:31:29.962Z,20.82
2018-06-10T16:34:02.727Z,21.15
2018-06-10T16:36:35.362Z,21.30
2018-06-10T16:39:08.384Z,23.83
2018-06-10T16:41:40.850Z,21.93
2018-06-10T16:44:13.490Z,19.67
2018-06-10T16:46:45.920Z,18.93
2018-06-10T16:49:18.895Z,22.13
2018-06-10T16:51:51.301Z,19.52
2018-06-10T16:54:23.688Z,19.60
2018-06-10T16:56:56.212Z,18.33
2018-06-10T16:59:28.610Z,19.67
2018-06-10T17:02:01.051Z,17.53
2018-06-10T17:04:33.433Z,17.57
2018-06-10T17:07:05.836Z,18.25
2018-06-10T17:09:38.239Z,18.53
2018-06-10T17:12:10.649Z,20.48
2018-06-10T17:14:43.301Z,20.43
2018-06-10T17:17:15.696Z,21.00
2018-06-10T17:19:48.097Z,20.83
2018-06-10T17:22:20.493Z,17.87
2018-06-10T17:24:53.197Z,19.63
2018-06-10T17:27:25.696Z,21.47
2018-06-10T17:29:58.382Z,17.87
2018-06-10T17:32:31.054Z,17.53
2018-06-10T17:35:04.041Z,20.13
2018-06-10T17:37:36.717Z,18.17
2018-06-10T17:40:09.452Z,19.23
2018-06-10T17:42:42.083Z,19.57
2018-06-10T17:45:15.102Z,17.27
2018-06-10T17:47:47.790Z,19.77
2018-06-10T17:50:20.197Z,17.80
2018-06-10T17:52:52.857Z,16.93
2018-06-10T17:55:25.266Z,16.67
2018-06-10T17:57:57.665Z,17.40
2018-06-10T18:00:30.066Z,17.10
2018-06-10T18:03:02.458Z,18.50
2018-06-10T18:05:34.879Z,18.93
2018-06-10T18:08:07.261Z,22.93
2018-06-10T18:10:39.697Z,18.80
2018-06-10T18:13:11.930Z,20.53
2018-06-10T18:15:44.357Z,20.10
2018-06-10T18:18:16.797Z,18.43
2018-06-10T18:20:49.201Z,22.67
2018-06-10T18:23:21.597Z,21.20
2018-06-10T18:25:54.326Z,19.47
2018-06-10T18:28:26.726Z,21.45
2018-06-10T18:30:59.133Z,18.27
2018-06-10T18:33:32.069Z,16.60
2018-06-10T18:36:04.749Z,21.30
2018-06-10T18:38:37.144Z,19.80
2018-06-10T18:41:09.910Z,17.67
2018-06-10T18:43:42.637Z,17.37
2018-06-10T18:46:15.110Z,19.20
2018-06-10T18:48:47.735Z,18.07
2018-06-10T18:51:21.132Z,19.10
2018-06-10T18:53:53.525Z,28.33
2018-06-10T18:56:25.933Z,18.43
2018-06-10T18:58:58.448Z,16.37
2018-06-10T19:01:30.845Z,20.07
2018-06-10T19:04:03.242Z,21.43
2018-06-10T19:06:35.706Z,20.13
2018-06-10T19:09:08.493Z,20.70
2018-06-10T19:11:40.887Z,17.47
2018-06-10T19:14:13.540Z,18.93
2018-06-10T19:16:45.952Z,17.13
2018-06-10T19:19:18.358Z,17.30
2018-06-10T19:21:50.769Z,17.70
2018-06-10T19:24:23.154Z,16.43
2018-06-10T19:26:56.602Z,17.17
2018-06-10T19:29:29.052Z,18.30
2018-06-10T19:32:01.997Z,16.13
2018-06-10T19:34:34.388Z,16.80
2018-06-10T19:37:06.799Z,19.55
2018-06-10T19:39:39.195Z,17.57
2018-06-10T19:42:11.610Z,18.07
2018-06-10T19:44:44.054Z,16.02
2018-06-10T19:47:16.464Z,15.53
2018-06-10T19:49:48.858Z,16.53
2018-06-10T19:52:21.321Z,16.30
2018-06-10T19:54:54.286Z,15.13
2018-06-10T19:57:26.698Z,15.87
2018-06-10T19:59:59.096Z,15.97
2018-06-10T20:02:31.509Z,17.20
2018-06-10T20:05:04.805Z,17.40
2018-06-10T20:07:37.471Z,17.53
2018-06-10T20:10:10.177Z,14.87
2018-06-10T20:12:42.681Z,16.60
2018-06-10T20:15:15.246Z,16.20
2018-06-10T20:17:47.732Z,17.77
2018-06-10T20:20:20.130Z,17.37
2018-06-10T20:22:52.693Z,18.37
2018-06-10T20:25:25.081Z,15.50
2018-06-10T20:27:57.513Z,15.90
2018-06-10T20:30:29.948Z,19.63
2018-06-10T20:33:02.342Z,18.97
2018-06-10T20:35:34.731Z,16.83
2018-06-10T20:38:07.699Z,17.87
2018-06-10T20:40:40.379Z,16.87
2018-06-10T20:43:12.781Z,19.27
2018-06-10T20:45:46.210Z,21.03
2018-06-10T20:48:19.232Z,17.37
2018-06-10T20:50:51.870Z,19.40
2018-06-10T20:53:24.384Z,20.87
2018-06-10T20:55:57.069Z,21.70
2018-06-10T20:58:29.478Z,18.40
2018-06-10T21:01:01.885Z,19.13
2018-06-10T21:03:34.562Z,18.40
2018-06-10T21:06:06.959Z,19.57
2018-06-10T21:08:39.192Z,21.63
2018-06-10T21:11:11.605Z,18.20
2018-06-10T21:13:44.281Z,19.47
2018-06-10T21:16:17.166Z,17.57
2018-06-10T21:18:49.639Z,19.77
2018-06-10T21:21:22.099Z,18.73
2018-06-10T21:23:54.793Z,19.30
2018-06-10T21:26:27.193Z,19.23
2018-06-10T21:28:59.841Z,22.03
2018-06-10T21:31:32.232Z,18.27
2018-06-10T21:34:04.969Z,21.93
2018-06-10T21:36:37.378Z,17.30
2018-06-10T21:39:10.122Z,20.63
2018-06-10T21:41:42.549Z,19.57
2018-06-10T21:44:15.274Z,18.67
2018-06-10T21:46:47.705Z,17.70
2018-06-10T21:49:20.119Z,18.73
2018-06-10T21:51:52.521Z,17.53
2018-06-10T21:54:25.173Z,18.33
2018-06-10T21:56:57.885Z,18.57
2018-06-10T21:59:30.298Z,17.00
2018-06-10T22:02:03.337Z,19.70
2018-06-10T22:04:35.792Z,18.77
2018-06-10T22:07:08.193Z,19.93
2018-06-10T22:09:40.614Z,20.87
2018-06-10T22:12:13.742Z,21.13
2018-06-10T22:14:46.154Z,20.37
2018-06-10T22:17:18.793Z,18.40
2018-06-10T22:19:51.545Z,17.63
2018-06-10T22:22:23.946Z,19.37
2018-06-10T22:24:56.640Z,17.33
2018-06-10T22:27:29.405Z,19.07
2018-06-10T22:30:01.981Z,18.63
2018-06-10T22:32:34.380Z,21.17
2018-06-10T22:35:06.797Z,21.00
2018-06-10T22:37:39.198Z,22.93
2018-06-10T22:40:11.623Z,21.87
2018-06-10T22:42:44.354Z,23.80
2018-06-10T22:45:16.773Z,20.70
2018-06-10T22:47:49.184Z,22.57
2018-06-10T22:50:21.577Z,20.83
2018-06-10T22:53:08.632Z,23.20
2018-06-10T22:55:41.017Z,21.50
2018-06-10T22:58:17.295Z,23.23
2018-06-10T23:00:49.677Z,22.13
2018-06-10T23:03:22.154Z,21.90
2018-06-10T23:05:54.594Z,23.50
2018-06-10T23:08:27.336Z,22.40
2018-06-10T23:10:59.997Z,22.43
2018-06-10T23:13:32.789Z,21.10
2018-06-10T23:16:05.197Z,26.73
2018-06-10T23:18:37.906Z,22.40
2018-06-10T23:21:10.487Z,23.63
2018-06-10T23:23:42.901Z,22.37
2018-06-10T23:26:15.558Z,25.47
2018-06-10T23:28:47.988Z,23.87
2018-06-10T23:31:20.391Z,26.63
2018-06-10T23:33:52.814Z,24.10
2018-06-10T23:36:25.221Z,25.33
2018-06-10T23:38:57.653Z,28.67
2018-06-10T23:41:30.096Z,29.67
2018-06-10T23:44:02.522Z,30.20
2018-06-10T23:46:34.914Z,28.83
2018-06-10T23:49:07.310Z,23.93
2018-06-10T23:51:39.706Z,28.03
2018-06-10T23:54:12.301Z,26.57
2018-06-10T23:56:45.002Z,28.33
2018-06-10T23:59:17.431Z,27.00
